sensor_id;sensor_type;location;lat;lon;timestamp;temperature;humidity
1570;DHT22;778;50.120;8.698;2023-01-08T00:01:32;10.10;99.90
1570;DHT22;778;50.120;8.698;2023-01-08T00:04:00;10.10;99.90
1570;DHT22;778;50.120;8.698;2023-01-08T00:06:30;10.10;99.90
1570;DHT22;778;50.120;8.698;2023-01-08T00:09:01;10.10;99.90
1570;DHT22;778;50.120;8.698;2023-01-08T00:11:30;10.10;99.90
1570;DHT22;778;50.120;8.698;2023-01-08T00:13:58;10.10;99.90
1570;DHT22;778;50.120;8.698;2023-01-08T00:16:27;10.10;99.90
1570;DHT22;778;50.120;8.698;2023-01-08T00:18:56;10.10;99.90
1570;DHT22;778;50.120;8.698;2023-01-08T00:21:24;10.10;99.90
1570;DHT22;778;50.120;8.698;2023-01-08T00:23:54;10.10;99.90
1570;DHT22;778;50.120;8.698;2023-01-08T00:26:23;10.10;99.90
1570;DHT22;778;50.120;8.698;2023-01-08T00:28:52;10.20;99.90
1570;DHT22;778;50.120;8.698;2023-01-08T00:31:21;10.20;99.90
1570;DHT22;778;50.120;8.698;2023-01-08T00:33:49;10.20;99.90
1570;DHT22;778;50.120;8.698;2023-01-08T00:36:18;10.20;99.90
1570;DHT22;778;50.120;8.698;2023-01-08T00:38:47;10.30;99.90
1570;DHT22;778;50.120;8.698;2023-01-08T00:41:17;10.30;99.90
1570;DHT22;778;50.120;8.698;2023-01-08T00:43:45;10.30;99.90
1570;DHT22;778;50.120;8.698;2023-01-08T00:46:14;10.30;99.90
1570;DHT22;778;50.120;8.698;2023-01-08T00:48:42;10.30;99.90
1570;DHT22;778;50.120;8.698;2023-01-08T00:51:11;10.30;99.90
1570;DHT22;778;50.120;8.698;2023-01-08T00:53:39;10.30;99.90
1570;DHT22;778;50.120;8.698;2023-01-08T00:56:09;10.30;99.90
1570;DHT22;778;50.120;8.698;2023-01-08T00:58:39;10.30;99.90
1570;DHT22;778;50.120;8.698;2023-01-08T01:01:12;10.30;99.90
1570;DHT22;778;50.120;8.698;2023-01-08T01:03:41;10.30;99.90
1570;DHT22;778;50.120;8.698;2023-01-08T01:06:12;10.30;99.90
1570;DHT22;778;50.120;8.698;2023-01-08T01:08:41;10.30;99.90
1570;DHT22;778;50.120;8.698;2023-01-08T01:11:17;10.30;99.90
1570;DHT22;778;50.120;8.698;2023-01-08T01:13:51;10.30;99.90
1570;DHT22;778;50.120;8.698;2023-01-08T01:16:21;10.30;99.90
1570;DHT22;778;50.120;8.698;2023-01-08T01:18:50;10.30;99.90
1570;DHT22;778;50.120;8.698;2023-01-08T01:21:21;10.40;99.90
1570;DHT22;778;50.120;8.698;2023-01-08T01:23:53;10.30;99.90
1570;DHT22;778;50.120;8.698;2023-01-08T01:26:23;10.40;99.90
1570;DHT22;778;50.120;8.698;2023-01-08T01:28:55;10.40;99.90
1570;DHT22;778;50.120;8.698;2023-01-08T01:31:26;10.40;99.90
1570;DHT22;778;50.120;8.698;2023-01-08T01:33:55;10.40;99.90
1570;DHT22;778;50.120;8.698;2023-01-08T01:36:24;10.40;99.90
1570;DHT22;778;50.120;8.698;2023-01-08T01:38:55;10.50;99.90
1570;DHT22;778;50.120;8.698;2023-01-08T01:41:26;10.50;99.90
1570;DHT22;778;50.120;8.698;2023-01-08T01:43:58;10.50;99.90
1570;DHT22;778;50.120;8.698;2023-01-08T01:46:35;10.60;99.90
1570;DHT22;778;50.120;8.698;2023-01-08T01:49:09;10.60;99.90
1570;DHT22;778;50.120;8.698;2023-01-08T01:51:42;10.60;99.90
1570;DHT22;778;50.120;8.698;2023-01-08T01:54:12;10.60;99.90
1570;DHT22;778;50.120;8.698;2023-01-08T01:56:42;10.60;99.90
1570;DHT22;778;50.120;8.698;2023-01-08T01:59:12;10.60;99.90
1570;DHT22;778;50.120;8.698;2023-01-08T02:01:41;10.60;99.90
1570;DHT22;778;50.120;8.698;2023-01-08T02:04:11;10.60;99.90
1570;DHT22;778;50.120;8.698;2023-01-08T02:06:44;10.70;99.90
1570;DHT22;778;50.120;8.698;2023-01-08T02:09:21;10.70;99.90
1570;DHT22;778;50.120;8.698;2023-01-08T02:11:57;10.70;99.90
1570;DHT22;778;50.120;8.698;2023-01-08T02:14:48;10.70;99.90
1570;DHT22;778;50.120;8.698;2023-01-08T02:17:34;10.70;99.90
1570;DHT22;778;50.120;8.698;2023-01-08T02:20:11;10.70;99.90
1570;DHT22;778;50.120;8.698;2023-01-08T02:22:50;10.70;99.90
1570;DHT22;778;50.120;8.698;2023-01-08T02:25:54;10.70;99.90
1570;DHT22;778;50.120;8.698;2023-01-08T02:28:39;10.70;99.90
1570;DHT22;778;50.120;8.698;2023-01-08T02:31:09;10.70;99.90
1570;DHT22;778;50.120;8.698;2023-01-08T02:33:39;10.70;99.90
1570;DHT22;778;50.120;8.698;2023-01-08T02:36:29;10.70;99.90
1570;DHT22;778;50.120;8.698;2023-01-08T02:39:28;10.70;99.90
1570;DHT22;778;50.120;8.698;2023-01-08T02:42:09;10.60;99.90
1570;DHT22;778;50.120;8.698;2023-01-08T02:44:57;10.60;99.90
1570;DHT22;778;50.120;8.698;2023-01-08T02:47:32;10.60;99.90
1570;DHT22;778;50.120;8.698;2023-01-08T02:50:09;10.60;99.90
1570;DHT22;778;50.120;8.698;2023-01-08T02:52:46;10.50;99.90
1570;DHT22;778;50.120;8.698;2023-01-08T02:55:21;10.50;99.90
1570;DHT22;778;50.120;8.698;2023-01-08T02:57:52;10.40;99.90
1570;DHT22;778;50.120;8.698;2023-01-08T03:00:21;10.40;99.90
1570;DHT22;778;50.120;8.698;2023-01-08T03:02:53;10.40;99.90
1570;DHT22;778;50.120;8.698;2023-01-08T03:05:29;10.30;99.90
1570;DHT22;778;50.120;8.698;2023-01-08T03:07:57;10.30;99.90
1570;DHT22;778;50.120;8.698;2023-01-08T03:10:27;10.30;99.90
1570;DHT22;778;50.120;8.698;2023-01-08T03:13:01;10.30;99.90
1570;DHT22;778;50.120;8.698;2023-01-08T03:15:36;10.30;99.90
1570;DHT22;778;50.120;8.698;2023-01-08T03:18:10;10.30;99.90
1570;DHT22;778;50.120;8.698;2023-01-08T03:20:41;10.30;99.90
1570;DHT22;778;50.120;8.698;2023-01-08T03:23:11;10.20;99.90
1570;DHT22;778;50.120;8.698;2023-01-08T03:25:43;10.20;99.90
1570;DHT22;778;50.120;8.698;2023-01-08T03:28:19;10.20;99.90
1570;DHT22;778;50.120;8.698;2023-01-08T03:30:51;10.10;99.90
1570;DHT22;778;50.120;8.698;2023-01-08T03:33:21;10.10;99.90
1570;DHT22;778;50.120;8.698;2023-01-08T03:35:53;10.10;99.90
1570;DHT22;778;50.120;8.698;2023-01-08T03:38:26;10.00;99.90
1570;DHT22;778;50.120;8.698;2023-01-08T03:41:01;10.00;99.90
1570;DHT22;778;50.120;8.698;2023-01-08T03:43:33;10.00;99.90
1570;DHT22;778;50.120;8.698;2023-01-08T03:46:06;10.00;99.90
1570;DHT22;778;50.120;8.698;2023-01-08T03:48:37;10.00;99.90
1570;DHT22;778;50.120;8.698;2023-01-08T03:51:07;10.00;99.90
1570;DHT22;778;50.120;8.698;2023-01-08T03:53:36;10.00;99.90
1570;DHT22;778;50.120;8.698;2023-01-08T03:56:05;9.90;99.90
1570;DHT22;778;50.120;8.698;2023-01-08T03:58:35;9.90;99.90
1570;DHT22;778;50.120;8.698;2023-01-08T04:01:04;9.90;99.90
1570;DHT22;778;50.120;8.698;2023-01-08T04:03:33;9.90;99.90
1570;DHT22;778;50.120;8.698;2023-01-08T04:06:01;10.00;99.90
1570;DHT22;778;50.120;8.698;2023-01-08T04:08:29;9.90;99.90
1570;DHT22;778;50.120;8.698;2023-01-08T04:10:58;10.00;99.90
1570;DHT22;778;50.120;8.698;2023-01-08T04:13:26;9.90;99.90
1570;DHT22;778;50.120;8.698;2023-01-08T04:15:56;10.00;99.90
1570;DHT22;778;50.120;8.698;2023-01-08T04:18:25;10.00;99.90
1570;DHT22;778;50.120;8.698;2023-01-08T04:20:53;10.00;99.90
1570;DHT22;778;50.120;8.698;2023-01-08T04:23:22;10.00;99.90
1570;DHT22;778;50.120;8.698;2023-01-08T04:25:51;9.90;99.90
1570;DHT22;778;50.120;8.698;2023-01-08T04:28:19;9.90;99.90
1570;DHT22;778;50.120;8.698;2023-01-08T04:30:48;9.90;99.90
1570;DHT22;778;50.120;8.698;2023-01-08T04:33:18;9.90;99.90
1570;DHT22;778;50.120;8.698;2023-01-08T04:35:46;9.80;99.90
1570;DHT22;778;50.120;8.698;2023-01-08T04:38:15;9.80;99.90
1570;DHT22;778;50.120;8.698;2023-01-08T04:40:43;9.80;99.90
1570;DHT22;778;50.120;8.698;2023-01-08T04:43:12;9.80;99.90
1570;DHT22;778;50.120;8.698;2023-01-08T04:45:40;9.90;99.90
1570;DHT22;778;50.120;8.698;2023-01-08T04:48:09;9.80;99.90
1570;DHT22;778;50.120;8.698;2023-01-08T04:50:38;9.80;99.90
1570;DHT22;778;50.120;8.698;2023-01-08T04:53:07;9.80;99.90
1570;DHT22;778;50.120;8.698;2023-01-08T04:55:35;9.80;99.90
1570;DHT22;778;50.120;8.698;2023-01-08T04:58:05;9.80;99.90
1570;DHT22;778;50.120;8.698;2023-01-08T05:00:34;9.80;99.90
1570;DHT22;778;50.120;8.698;2023-01-08T05:03:02;9.80;99.90
1570;DHT22;778;50.120;8.698;2023-01-08T05:05:32;9.80;99.90
1570;DHT22;778;50.120;8.698;2023-01-08T05:08:03;9.80;99.90
1570;DHT22;778;50.120;8.698;2023-01-08T05:10:32;9.80;99.90
1570;DHT22;778;50.120;8.698;2023-01-08T05:13:00;9.80;99.90
1570;DHT22;778;50.120;8.698;2023-01-08T05:15:29;9.80;99.90
1570;DHT22;778;50.120;8.698;2023-01-08T05:17:58;9.80;99.90
1570;DHT22;778;50.120;8.698;2023-01-08T05:20:27;9.90;99.90
1570;DHT22;778;50.120;8.698;2023-01-08T05:22:56;9.90;99.90
1570;DHT22;778;50.120;8.698;2023-01-08T05:25:26;9.90;99.90
1570;DHT22;778;50.120;8.698;2023-01-08T05:27:55;9.80;99.90
1570;DHT22;778;50.120;8.698;2023-01-08T05:30:23;9.80;99.90
1570;DHT22;778;50.120;8.698;2023-01-08T05:32:52;9.80;99.90
1570;DHT22;778;50.120;8.698;2023-01-08T05:35:20;9.90;99.90
1570;DHT22;778;50.120;8.698;2023-01-08T05:37:49;9.80;99.90
1570;DHT22;778;50.120;8.698;2023-01-08T05:40:17;9.80;99.90
1570;DHT22;778;50.120;8.698;2023-01-08T05:42:47;9.80;99.90
1570;DHT22;778;50.120;8.698;2023-01-08T05:45:16;9.80;99.90
1570;DHT22;778;50.120;8.698;2023-01-08T05:47:44;9.80;99.90
1570;DHT22;778;50.120;8.698;2023-01-08T05:50:13;9.80;99.90
1570;DHT22;778;50.120;8.698;2023-01-08T05:52:41;9.80;99.90
1570;DHT22;778;50.120;8.698;2023-01-08T05:55:10;9.80;99.90
1570;DHT22;778;50.120;8.698;2023-01-08T05:57:39;9.80;99.90
1570;DHT22;778;50.120;8.698;2023-01-08T06:00:09;9.90;99.90
1570;DHT22;778;50.120;8.698;2023-01-08T06:02:39;9.90;99.90
1570;DHT22;778;50.120;8.698;2023-01-08T06:05:08;9.90;99.90
1570;DHT22;778;50.120;8.698;2023-01-08T06:07:36;9.80;99.90
1570;DHT22;778;50.120;8.698;2023-01-08T06:10:05;9.80;99.90
1570;DHT22;778;50.120;8.698;2023-01-08T06:12:34;9.80;99.90
1570;DHT22;778;50.120;8.698;2023-01-08T06:15:03;9.80;99.90
1570;DHT22;778;50.120;8.698;2023-01-08T06:17:34;9.80;99.90
1570;DHT22;778;50.120;8.698;2023-01-08T06:20:03;9.80;99.90
1570;DHT22;778;50.120;8.698;2023-01-08T06:22:32;9.80;99.90
1570;DHT22;778;50.120;8.698;2023-01-08T06:25:01;9.80;99.90
1570;DHT22;778;50.120;8.698;2023-01-08T06:27:30;9.80;99.90
1570;DHT22;778;50.120;8.698;2023-01-08T06:29:58;9.80;99.90
1570;DHT22;778;50.120;8.698;2023-01-08T06:32:27;9.80;99.90
1570;DHT22;778;50.120;8.698;2023-01-08T06:34:56;9.80;99.90
1570;DHT22;778;50.120;8.698;2023-01-08T06:37:25;9.80;99.90
1570;DHT22;778;50.120;8.698;2023-01-08T06:39:53;9.70;99.90
1570;DHT22;778;50.120;8.698;2023-01-08T06:42:22;9.70;99.90
1570;DHT22;778;50.120;8.698;2023-01-08T06:44:50;9.70;99.90
1570;DHT22;778;50.120;8.698;2023-01-08T06:47:19;9.70;99.90
1570;DHT22;778;50.120;8.698;2023-01-08T06:49:47;9.70;99.90
1570;DHT22;778;50.120;8.698;2023-01-08T06:52:17;9.70;99.90
1570;DHT22;778;50.120;8.698;2023-01-08T06:54:45;9.70;99.90
1570;DHT22;778;50.120;8.698;2023-01-08T06:57:14;9.70;99.90
1570;DHT22;778;50.120;8.698;2023-01-08T06:59:42;9.70;99.90
1570;DHT22;778;50.120;8.698;2023-01-08T07:02:12;9.70;99.90
1570;DHT22;778;50.120;8.698;2023-01-08T07:04:41;9.80;99.90
1570;DHT22;778;50.120;8.698;2023-01-08T07:07:11;9.70;99.90
1570;DHT22;778;50.120;8.698;2023-01-08T07:09:42;9.70;99.90
1570;DHT22;778;50.120;8.698;2023-01-08T07:12:11;9.70;99.90
1570;DHT22;778;50.120;8.698;2023-01-08T07:14:40;9.70;99.90
1570;DHT22;778;50.120;8.698;2023-01-08T07:17:09;9.60;99.90
1570;DHT22;778;50.120;8.698;2023-01-08T07:19:37;9.70;99.90
1570;DHT22;778;50.120;8.698;2023-01-08T07:22:05;9.70;99.90
1570;DHT22;778;50.120;8.698;2023-01-08T07:24:34;9.70;99.90
1570;DHT22;778;50.120;8.698;2023-01-08T07:27:04;9.60;99.90
1570;DHT22;778;50.120;8.698;2023-01-08T07:29:32;9.70;99.90
1570;DHT22;778;50.120;8.698;2023-01-08T07:32:01;9.60;99.90
1570;DHT22;778;50.120;8.698;2023-01-08T07:34:30;9.60;99.90
1570;DHT22;778;50.120;8.698;2023-01-08T07:37:00;9.70;99.90
1570;DHT22;778;50.120;8.698;2023-01-08T07:39:28;9.60;99.90
1570;DHT22;778;50.120;8.698;2023-01-08T07:41:57;9.70;99.90
1570;DHT22;778;50.120;8.698;2023-01-08T07:44:27;9.60;99.90
1570;DHT22;778;50.120;8.698;2023-01-08T07:46:56;9.60;99.90
1570;DHT22;778;50.120;8.698;2023-01-08T07:49:24;9.60;99.90
1570;DHT22;778;50.120;8.698;2023-01-08T07:51:52;9.60;99.90
1570;DHT22;778;50.120;8.698;2023-01-08T07:54:21;9.70;99.90
1570;DHT22;778;50.120;8.698;2023-01-08T07:56:49;9.60;99.90
1570;DHT22;778;50.120;8.698;2023-01-08T07:59:18;9.70;99.90
1570;DHT22;778;50.120;8.698;2023-01-08T08:01:48;9.60;99.90
1570;DHT22;778;50.120;8.698;2023-01-08T08:04:16;9.60;99.90
1570;DHT22;778;50.120;8.698;2023-01-08T08:06:45;9.60;99.90
1570;DHT22;778;50.120;8.698;2023-01-08T08:09:13;9.60;99.90
1570;DHT22;778;50.120;8.698;2023-01-08T08:11:42;9.60;99.90
1570;DHT22;778;50.120;8.698;2023-01-08T08:14:10;9.60;99.90
1570;DHT22;778;50.120;8.698;2023-01-08T08:16:39;9.60;99.90
1570;DHT22;778;50.120;8.698;2023-01-08T08:19:09;9.60;99.90
1570;DHT22;778;50.120;8.698;2023-01-08T08:21:38;9.70;99.90
1570;DHT22;778;50.120;8.698;2023-01-08T08:24:07;9.60;99.90
1570;DHT22;778;50.120;8.698;2023-01-08T08:26:35;9.60;99.90
1570;DHT22;778;50.120;8.698;2023-01-08T08:29:09;9.60;99.90
1570;DHT22;778;50.120;8.698;2023-01-08T08:31:38;9.60;99.90
1570;DHT22;778;50.120;8.698;2023-01-08T08:34:06;9.60;99.90
1570;DHT22;778;50.120;8.698;2023-01-08T08:36:36;9.60;99.90
1570;DHT22;778;50.120;8.698;2023-01-08T08:39:05;9.60;99.90
1570;DHT22;778;50.120;8.698;2023-01-08T08:41:34;9.60;99.90
1570;DHT22;778;50.120;8.698;2023-01-08T08:44:03;9.60;99.90
1570;DHT22;778;50.120;8.698;2023-01-08T08:46:32;9.60;99.90
1570;DHT22;778;50.120;8.698;2023-01-08T08:49:01;9.60;99.90
1570;DHT22;778;50.120;8.698;2023-01-08T08:51:31;9.60;99.90
1570;DHT22;778;50.120;8.698;2023-01-08T08:54:00;9.60;99.90
1570;DHT22;778;50.120;8.698;2023-01-08T08:56:28;9.60;99.90
1570;DHT22;778;50.120;8.698;2023-01-08T08:58:57;9.60;99.90
1570;DHT22;778;50.120;8.698;2023-01-08T09:01:26;9.60;99.90
1570;DHT22;778;50.120;8.698;2023-01-08T09:03:54;9.60;99.90
1570;DHT22;778;50.120;8.698;2023-01-08T09:06:23;9.60;99.90
1570;DHT22;778;50.120;8.698;2023-01-08T09:08:54;9.60;99.90
1570;DHT22;778;50.120;8.698;2023-01-08T09:11:23;9.60;99.90
1570;DHT22;778;50.120;8.698;2023-01-08T09:13:51;9.60;99.90
1570;DHT22;778;50.120;8.698;2023-01-08T09:16:20;9.60;99.90
1570;DHT22;778;50.120;8.698;2023-01-08T09:18:49;9.60;99.90
1570;DHT22;778;50.120;8.698;2023-01-08T09:21:17;9.50;99.90
1570;DHT22;778;50.120;8.698;2023-01-08T09:23:47;9.60;99.90
1570;DHT22;778;50.120;8.698;2023-01-08T09:26:17;9.60;99.90
1570;DHT22;778;50.120;8.698;2023-01-08T09:28:45;9.60;99.90
1570;DHT22;778;50.120;8.698;2023-01-08T09:31:14;9.60;99.90
1570;DHT22;778;50.120;8.698;2023-01-08T09:33:42;9.60;99.90
1570;DHT22;778;50.120;8.698;2023-01-08T09:36:11;9.70;99.90
1570;DHT22;778;50.120;8.698;2023-01-08T09:38:39;9.70;99.90
1570;DHT22;778;50.120;8.698;2023-01-08T09:41:12;9.80;99.90
1570;DHT22;778;50.120;8.698;2023-01-08T09:43:48;9.70;99.90
1570;DHT22;778;50.120;8.698;2023-01-08T09:46:18;9.70;99.90
1570;DHT22;778;50.120;8.698;2023-01-08T09:48:49;9.70;99.90
1570;DHT22;778;50.120;8.698;2023-01-08T09:51:19;9.80;99.90
1570;DHT22;778;50.120;8.698;2023-01-08T09:53:52;9.80;99.90
1570;DHT22;778;50.120;8.698;2023-01-08T09:56:23;9.80;99.90
1570;DHT22;778;50.120;8.698;2023-01-08T09:58:55;9.80;99.90
1570;DHT22;778;50.120;8.698;2023-01-08T10:01:27;9.80;99.90
1570;DHT22;778;50.120;8.698;2023-01-08T10:04:03;9.80;99.90
1570;DHT22;778;50.120;8.698;2023-01-08T10:06:33;9.80;99.90
1570;DHT22;778;50.120;8.698;2023-01-08T10:09:02;9.90;99.90
1570;DHT22;778;50.120;8.698;2023-01-08T10:11:39;9.90;99.90
1570;DHT22;778;50.120;8.698;2023-01-08T10:14:19;9.80;99.90
1570;DHT22;778;50.120;8.698;2023-01-08T10:16:55;9.80;99.90
1570;DHT22;778;50.120;8.698;2023-01-08T10:19:25;9.90;99.90
1570;DHT22;778;50.120;8.698;2023-01-08T10:22:01;9.90;99.90
1570;DHT22;778;50.120;8.698;2023-01-08T10:24:32;9.90;99.90
1570;DHT22;778;50.120;8.698;2023-01-08T10:27:10;9.90;99.90
1570;DHT22;778;50.120;8.698;2023-01-08T10:29:42;9.90;99.90
1570;DHT22;778;50.120;8.698;2023-01-08T10:32:14;9.90;99.90
1570;DHT22;778;50.120;8.698;2023-01-08T10:34:46;9.90;99.90
1570;DHT22;778;50.120;8.698;2023-01-08T10:37:25;9.90;99.90
1570;DHT22;778;50.120;8.698;2023-01-08T10:40:05;9.80;99.90
1570;DHT22;778;50.120;8.698;2023-01-08T10:42:46;9.90;99.90
1570;DHT22;778;50.120;8.698;2023-01-08T10:45:19;9.80;99.90
1570;DHT22;778;50.120;8.698;2023-01-08T10:47:51;9.80;99.90
1570;DHT22;778;50.120;8.698;2023-01-08T10:50:23;9.90;99.90
1570;DHT22;778;50.120;8.698;2023-01-08T10:52:55;9.90;99.90
1570;DHT22;778;50.120;8.698;2023-01-08T10:55:27;9.90;99.90
1570;DHT22;778;50.120;8.698;2023-01-08T10:58:00;10.00;99.90
1570;DHT22;778;50.120;8.698;2023-01-08T11:00:32;10.00;99.90
1570;DHT22;778;50.120;8.698;2023-01-08T11:03:03;10.10;99.90
1570;DHT22;778;50.120;8.698;2023-01-08T11:05:35;10.10;99.90
1570;DHT22;778;50.120;8.698;2023-01-08T11:08:06;10.10;99.90
1570;DHT22;778;50.120;8.698;2023-01-08T11:10:39;10.20;99.90
1570;DHT22;778;50.120;8.698;2023-01-08T11:13:16;10.30;99.90
1570;DHT22;778;50.120;8.698;2023-01-08T11:15:58;10.40;99.90
1570;DHT22;778;50.120;8.698;2023-01-08T11:18:30;10.60;99.90
1570;DHT22;778;50.120;8.698;2023-01-08T11:21:08;10.70;99.90
1570;DHT22;778;50.120;8.698;2023-01-08T11:23:37;10.90;99.90
1570;DHT22;778;50.120;8.698;2023-01-08T11:26:08;11.00;99.90
1570;DHT22;778;50.120;8.698;2023-01-08T11:28:48;11.30;99.90
1570;DHT22;778;50.120;8.698;2023-01-08T11:31:22;11.80;99.90
1570;DHT22;778;50.120;8.698;2023-01-08T11:34:01;12.10;99.90
1570;DHT22;778;50.120;8.698;2023-01-08T11:36:35;11.90;99.90
1570;DHT22;778;50.120;8.698;2023-01-08T11:39:08;11.70;99.90
1570;DHT22;778;50.120;8.698;2023-01-08T11:42:00;11.60;99.90
1570;DHT22;778;50.120;8.698;2023-01-08T11:44:48;11.40;99.90
1570;DHT22;778;50.120;8.698;2023-01-08T11:47:28;11.40;99.90
1570;DHT22;778;50.120;8.698;2023-01-08T11:50:13;11.20;99.90
1570;DHT22;778;50.120;8.698;2023-01-08T11:52:57;11.10;99.90
1570;DHT22;778;50.120;8.698;2023-01-08T11:55:42;11.20;99.90
1570;DHT22;778;50.120;8.698;2023-01-08T11:58:24;11.10;99.90
1570;DHT22;778;50.120;8.698;2023-01-08T12:01:13;11.10;99.90
1570;DHT22;778;50.120;8.698;2023-01-08T12:03:53;11.10;99.90
1570;DHT22;778;50.120;8.698;2023-01-08T12:06:33;11.10;99.90
1570;DHT22;778;50.120;8.698;2023-01-08T12:09:12;11.00;99.90
1570;DHT22;778;50.120;8.698;2023-01-08T12:11:49;11.10;99.90
1570;DHT22;778;50.120;8.698;2023-01-08T12:14:33;11.10;99.90
1570;DHT22;778;50.120;8.698;2023-01-08T12:20:27;11.10;99.90
1570;DHT22;778;50.120;8.698;2023-01-08T12:23:07;11.10;99.90
1570;DHT22;778;50.120;8.698;2023-01-08T12:26:02;11.10;99.90
1570;DHT22;778;50.120;8.698;2023-01-08T12:32:14;11.10;99.90
1570;DHT22;778;50.120;8.698;2023-01-08T12:34:51;11.00;99.90
1570;DHT22;778;50.120;8.698;2023-01-08T12:37:26;11.00;99.90
1570;DHT22;778;50.120;8.698;2023-01-08T12:40:02;11.00;99.90
1570;DHT22;778;50.120;8.698;2023-01-08T12:42:39;11.10;99.90
1570;DHT22;778;50.120;8.698;2023-01-08T12:45:19;10.90;99.90
1570;DHT22;778;50.120;8.698;2023-01-08T12:47:55;10.90;99.90
1570;DHT22;778;50.120;8.698;2023-01-08T12:50:34;10.90;99.90
1570;DHT22;778;50.120;8.698;2023-01-08T12:53:13;10.90;99.90
1570;DHT22;778;50.120;8.698;2023-01-08T12:55:54;11.00;99.90
1570;DHT22;778;50.120;8.698;2023-01-08T12:58:40;11.00;99.90
1570;DHT22;778;50.120;8.698;2023-01-08T13:01:26;11.00;99.90
1570;DHT22;778;50.120;8.698;2023-01-08T13:04:06;11.00;99.90
1570;DHT22;778;50.120;8.698;2023-01-08T13:06:35;11.00;99.90
1570;DHT22;778;50.120;8.698;2023-01-08T13:09:04;11.00;99.90
1570;DHT22;778;50.120;8.698;2023-01-08T13:11:34;11.00;99.90
1570;DHT22;778;50.120;8.698;2023-01-08T13:14:07;11.10;99.90
1570;DHT22;778;50.120;8.698;2023-01-08T13:16:37;11.00;99.90
1570;DHT22;778;50.120;8.698;2023-01-08T13:19:30;11.00;99.90
1570;DHT22;778;50.120;8.698;2023-01-08T13:22:22;11.00;99.90
1570;DHT22;778;50.120;8.698;2023-01-08T13:25:07;10.90;99.90
1570;DHT22;778;50.120;8.698;2023-01-08T13:27:37;11.00;99.90
1570;DHT22;778;50.120;8.698;2023-01-08T13:30:34;11.00;99.90
1570;DHT22;778;50.120;8.698;2023-01-08T13:33:24;10.90;99.90
1570;DHT22;778;50.120;8.698;2023-01-08T13:36:17;10.90;99.90
1570;DHT22;778;50.120;8.698;2023-01-08T13:38:59;10.90;99.90
1570;DHT22;778;50.120;8.698;2023-01-08T13:41:30;10.90;99.90
1570;DHT22;778;50.120;8.698;2023-01-08T13:44:02;10.90;99.90
1570;DHT22;778;50.120;8.698;2023-01-08T13:46:35;10.90;99.90
1570;DHT22;778;50.120;8.698;2023-01-08T13:49:08;10.90;99.90
1570;DHT22;778;50.120;8.698;2023-01-08T13:51:43;10.90;99.90
1570;DHT22;778;50.120;8.698;2023-01-08T13:54:18;10.90;99.90
1570;DHT22;778;50.120;8.698;2023-01-08T13:56:52;10.90;99.90
1570;DHT22;778;50.120;8.698;2023-01-08T13:59:30;10.90;99.90
1570;DHT22;778;50.120;8.698;2023-01-08T14:02:27;10.90;99.90
1570;DHT22;778;50.120;8.698;2023-01-08T14:04:58;10.90;99.90
1570;DHT22;778;50.120;8.698;2023-01-08T14:07:29;10.90;99.90
1570;DHT22;778;50.120;8.698;2023-01-08T14:10:06;10.90;99.90
1570;DHT22;778;50.120;8.698;2023-01-08T14:12:36;10.90;99.90
1570;DHT22;778;50.120;8.698;2023-01-08T14:15:07;10.80;99.90
1570;DHT22;778;50.120;8.698;2023-01-08T14:17:37;10.90;99.90
1570;DHT22;778;50.120;8.698;2023-01-08T14:20:10;10.90;99.90
1570;DHT22;778;50.120;8.698;2023-01-08T14:22:41;10.90;99.90
1570;DHT22;778;50.120;8.698;2023-01-08T14:25:14;10.90;99.90
1570;DHT22;778;50.120;8.698;2023-01-08T14:27:54;10.90;99.90
1570;DHT22;778;50.120;8.698;2023-01-08T14:30:24;10.90;99.90
1570;DHT22;778;50.120;8.698;2023-01-08T14:32:55;10.90;99.90
1570;DHT22;778;50.120;8.698;2023-01-08T14:35:32;10.90;99.90
1570;DHT22;778;50.120;8.698;2023-01-08T14:38:03;10.90;99.90
1570;DHT22;778;50.120;8.698;2023-01-08T14:40:35;10.90;99.90
1570;DHT22;778;50.120;8.698;2023-01-08T14:43:08;10.90;99.90
1570;DHT22;778;50.120;8.698;2023-01-08T14:45:44;10.90;99.90
1570;DHT22;778;50.120;8.698;2023-01-08T14:48:18;10.80;99.90
1570;DHT22;778;50.120;8.698;2023-01-08T14:51:04;10.80;99.90
1570;DHT22;778;50.120;8.698;2023-01-08T14:53:37;10.80;99.90
1570;DHT22;778;50.120;8.698;2023-01-08T14:56:11;10.90;99.90
1570;DHT22;778;50.120;8.698;2023-01-08T14:58:42;10.80;99.90
1570;DHT22;778;50.120;8.698;2023-01-08T15:01:15;10.80;99.90
1570;DHT22;778;50.120;8.698;2023-01-08T15:03:46;10.80;99.90
1570;DHT22;778;50.120;8.698;2023-01-08T15:06:24;10.80;99.90
1570;DHT22;778;50.120;8.698;2023-01-08T15:08:54;10.70;99.90
1570;DHT22;778;50.120;8.698;2023-01-08T15:11:25;10.70;99.90
1570;DHT22;778;50.120;8.698;2023-01-08T15:13:57;10.70;99.90
1570;DHT22;778;50.120;8.698;2023-01-08T15:16:28;10.60;99.90
1570;DHT22;778;50.120;8.698;2023-01-08T15:19:03;10.60;99.90
1570;DHT22;778;50.120;8.698;2023-01-08T15:21:33;10.50;99.90
1570;DHT22;778;50.120;8.698;2023-01-08T15:24:04;10.50;99.90
1570;DHT22;778;50.120;8.698;2023-01-08T15:26:39;10.50;99.90
1570;DHT22;778;50.120;8.698;2023-01-08T15:29:16;10.40;99.90
1570;DHT22;778;50.120;8.698;2023-01-08T15:31:47;10.40;99.90
1570;DHT22;778;50.120;8.698;2023-01-08T15:34:18;10.40;99.90
1570;DHT22;778;50.120;8.698;2023-01-08T15:36:47;10.40;99.90
1570;DHT22;778;50.120;8.698;2023-01-08T15:39:17;10.30;99.90
1570;DHT22;778;50.120;8.698;2023-01-08T15:41:45;10.30;99.90
1570;DHT22;778;50.120;8.698;2023-01-08T15:44:43;10.30;99.90
1570;DHT22;778;50.120;8.698;2023-01-08T15:47:11;10.20;99.90
1570;DHT22;778;50.120;8.698;2023-01-08T15:49:39;10.20;99.90
1570;DHT22;778;50.120;8.698;2023-01-08T15:52:08;10.20;99.90
1570;DHT22;778;50.120;8.698;2023-01-08T15:54:38;10.20;99.90
1570;DHT22;778;50.120;8.698;2023-01-08T15:57:09;10.10;99.90
1570;DHT22;778;50.120;8.698;2023-01-08T15:59:39;10.10;99.90
1570;DHT22;778;50.120;8.698;2023-01-08T16:02:09;10.10;99.90
1570;DHT22;778;50.120;8.698;2023-01-08T16:04:38;10.10;99.90
1570;DHT22;778;50.120;8.698;2023-01-08T16:07:07;10.10;99.90
1570;DHT22;778;50.120;8.698;2023-01-08T16:09:35;10.10;99.90
1570;DHT22;778;50.120;8.698;2023-01-08T16:12:05;10.10;99.90
1570;DHT22;778;50.120;8.698;2023-01-08T16:14:34;10.10;99.90
1570;DHT22;778;50.120;8.698;2023-01-08T16:17:03;10.10;99.90
1570;DHT22;778;50.120;8.698;2023-01-08T16:19:32;10.10;99.90
1570;DHT22;778;50.120;8.698;2023-01-08T16:22:00;10.10;99.90
1570;DHT22;778;50.120;8.698;2023-01-08T16:24:30;10.00;99.90
1570;DHT22;778;50.120;8.698;2023-01-08T16:26:59;10.00;99.90
1570;DHT22;778;50.120;8.698;2023-01-08T16:29:29;10.00;99.90
1570;DHT22;778;50.120;8.698;2023-01-08T16:31:58;10.00;99.90
1570;DHT22;778;50.120;8.698;2023-01-08T16:34:26;10.00;99.90
1570;DHT22;778;50.120;8.698;2023-01-08T16:36:55;10.00;99.90
1570;DHT22;778;50.120;8.698;2023-01-08T16:39:23;10.00;99.90
1570;DHT22;778;50.120;8.698;2023-01-08T16:41:52;10.00;99.90
1570;DHT22;778;50.120;8.698;2023-01-08T16:44:22;10.00;99.90
1570;DHT22;778;50.120;8.698;2023-01-08T16:46:55;10.00;99.90
1570;DHT22;778;50.120;8.698;2023-01-08T16:49:24;10.00;99.90
1570;DHT22;778;50.120;8.698;2023-01-08T16:51:53;10.00;99.90
1570;DHT22;778;50.120;8.698;2023-01-08T16:54:21;10.00;99.90
1570;DHT22;778;50.120;8.698;2023-01-08T16:56:51;10.00;99.90
1570;DHT22;778;50.120;8.698;2023-01-08T16:59:20;9.90;99.90
1570;DHT22;778;50.120;8.698;2023-01-08T17:01:50;9.90;99.90
1570;DHT22;778;50.120;8.698;2023-01-08T17:04:20;9.90;99.90